Time;durP1;ratioP1;P1;durP2;ratioP2;P2;SDS_P1;SDS_P2;PMS_P1;PMS_P2;Temp;Humidity;BMP_temperature;BMP_pressure;BME280_temperature;BME280_humidity;BME280_pressure;Samples;Min_cycle;Max_cycle;Signal;HPM_P1;HPM_P2
2023/01/28 00:01:15;;;;;;;10.70;8.50;;;1.40;99.90;;;;;;5040404;28;20410;-78
2023/01/28 00:03:40;;;;;;;9.85;8.27;;;1.30;99.90;;;;;;5046750;28;20397;-81
2023/01/28 00:06:12;;;;;;;8.25;7.45;;;1.30;99.90;;;;;;5059908;28;20392;-81
2023/01/28 00:08:38;;;;;;;9.70;8.13;;;1.30;99.90;;;;;;5041740;28;20475;-81
2023/01/28 00:11:06;;;;;;;8.77;7.63;;;1.30;99.90;;;;;;5041634;28;20490;-81
2023/01/28 00:13:33;;;;;;;9.25;8.23;;;1.30;99.90;;;;;;5041059;28;20404;-79
2023/01/28 00:16:01;;;;;;;9.35;8.10;;;1.30;99.90;;;;;;5055361;28;20391;-79
2023/01/28 00:18:27;;;;;;;9.70;7.85;;;1.30;99.90;;;;;;5040818;28;20468;-79
2023/01/28 00:20:57;;;;;;;9.20;8.18;;;1.30;99.90;;;;;;5040127;28;20456;-79
2023/01/28 00:23:23;;;;;;;10.13;8.60;;;1.40;99.90;;;;;;5058711;28;20385;-79
2023/01/28 00:25:49;;;;;;;8.65;7.75;;;1.30;99.90;;;;;;5041000;28;20905;-79
2023/01/28 00:28:14;;;;;;;8.97;8.00;;;1.30;99.90;;;;;;5059115;28;20446;-80
2023/01/28 00:30:40;;;;;;;9.40;7.77;;;1.30;99.90;;;;;;5059630;28;20878;-79
2023/01/28 00:33:05;;;;;;;8.80;7.90;;;1.50;99.90;;;;;;5059370;28;20389;-79
2023/01/28 00:35:31;;;;;;;9.00;7.93;;;1.40;99.90;;;;;;5059718;28;20396;-79
2023/01/28 00:37:56;;;;;;;8.73;7.80;;;1.40;99.90;;;;;;5059061;28;20389;-79
2023/01/28 00:40:22;;;;;;;8.90;8.00;;;1.30;99.90;;;;;;5052702;28;20421;-79
2023/01/28 00:42:48;;;;;;;9.45;8.20;;;1.30;99.90;;;;;;5030803;28;20418;-79
2023/01/28 00:45:13;;;;;;;9.03;7.87;;;1.30;99.90;;;;;;5059289;28;20484;-79
2023/01/28 00:47:39;;;;;;;9.70;7.90;;;1.40;99.90;;;;;;5041100;28;20393;-79
2023/01/28 00:50:05;;;;;;;9.30;8.30;;;1.40;99.90;;;;;;5040859;28;20476;-80
2023/01/28 00:52:30;;;;;;;9.75;8.00;;;1.40;99.90;;;;;;5040132;28;20475;-79
2023/01/28 00:54:56;;;;;;;9.27;8.20;;;1.40;99.90;;;;;;5058710;28;20419;-79
2023/01/28 00:57:21;;;;;;;9.98;8.30;;;1.40;99.90;;;;;;5035075;28;20404;-79
2023/01/28 00:59:47;;;;;;;8.25;7.45;;;1.40;99.90;;;;;;5041282;28;20401;-79
2023/01/28 01:02:12;;;;;;;10.77;8.48;;;1.40;99.90;;;;;;5043807;28;20392;-79
2023/01/28 01:04:39;;;;;;;9.70;8.35;;;1.40;99.90;;;;;;5060793;28;20425;-79
2023/01/28 01:07:05;;;;;;;10.75;8.63;;;1.50;99.90;;;;;;5039746;28;20476;-79
2023/01/28 01:09:31;;;;;;;10.40;8.20;;;1.40;99.90;;;;;;5039424;28;20417;-79
2023/01/28 01:11:56;;;;;;;11.20;7.87;;;1.50;99.90;;;;;;5020650;28;20383;-79
2023/01/28 01:14:22;;;;;;;9.90;8.67;;;1.50;99.90;;;;;;5039971;28;20452;-79
2023/01/28 01:16:47;;;;;;;10.20;8.40;;;1.50;99.90;;;;;;5041008;28;20387;-79
2023/01/28 01:19:13;;;;;;;11.17;8.00;;;1.50;99.90;;;;;;5025031;28;20398;-79
2023/01/28 01:21:38;;;;;;;9.97;8.77;;;1.50;99.90;;;;;;5043911;28;20411;-78
2023/01/28 01:24:04;;;;;;;10.80;9.10;;;1.60;99.90;;;;;;5064109;28;20424;-79
2023/01/28 01:26:30;;;;;;;9.80;8.57;;;1.40;99.90;;;;;;5070163;28;20774;-79
2023/01/28 01:28:55;;;;;;;9.80;8.10;;;1.50;99.90;;;;;;5074153;28;20389;-79
2023/01/28 01:31:21;;;;;;;10.13;8.50;;;1.50;99.90;;;;;;5058478;28;20395;-79
2023/01/28 01:33:49;;;;;;;12.27;9.05;;;1.50;99.90;;;;;;5035247;28;20398;-79
2023/01/28 01:36:18;;;;;;;9.90;8.23;;;1.50;99.90;;;;;;5038106;28;20429;-79
2023/01/28 01:38:44;;;;;;;9.20;8.20;;;1.50;99.90;;;;;;5020186;28;20395;-80
2023/01/28 01:41:30;;;;;;;10.38;9.30;;;1.60;99.90;;;;;;5038250;28;20403;-80
2023/01/28 01:43:58;;;;;;;10.55;8.85;;;1.50;99.90;;;;;;5055929;28;21032;-80
2023/01/28 01:46:44;;;;;;;10.25;8.88;;;1.60;99.90;;;;;;5052589;28;20395;-80
2023/01/28 01:49:19;;;;;;;10.95;9.40;;;1.60;99.90;;;;;;5037931;28;20424;-80
2023/01/28 01:51:48;;;;;;;10.20;9.10;;;1.60;99.90;;;;;;5019238;28;20430;-80
2023/01/28 01:54:15;;;;;;;10.87;9.00;;;1.50;99.90;;;;;;5022826;28;20975;-79
2023/01/28 01:56:43;;;;;;;11.52;9.20;;;1.60;99.90;;;;;;5038437;28;20901;-80
2023/01/28 01:59:14;;;;;;;11.53;9.10;;;1.60;99.90;;;;;;5055661;28;20425;-80
2023/01/28 02:01:40;;;;;;;10.75;8.88;;;1.60;99.90;;;;;;5056511;28;20417;-80
2023/01/28 02:04:21;;;;;;;9.98;8.57;;;1.50;99.90;;;;;;5037749;28;20801;-80
2023/01/28 02:06:47;;;;;;;10.15;8.80;;;1.50;99.90;;;;;;5040434;28;20410;-80
2023/01/28 02:09:30;;;;;;;9.70;8.63;;;1.50;99.90;;;;;;5036521;28;20462;-80
2023/01/28 02:12:01;;;;;;;11.23;8.52;;;1.50;99.90;;;;;;5036341;28;20420;-80
2023/01/28 02:14:30;;;;;;;11.63;8.85;;;1.60;99.90;;;;;;5034159;28;20396;-80
2023/01/28 02:16:56;;;;;;;10.10;8.70;;;1.60;99.90;;;;;;5053472;28;20491;-80
2023/01/28 02:19:27;;;;;;;10.88;8.80;;;1.60;99.90;;;;;;5055855;28;20393;-80
2023/01/28 02:22:11;;;;;;;10.30;8.40;;;1.50;99.90;;;;;;5029327;28;20725;-80
2023/01/28 02:24:52;;;;;;;9.65;8.43;;;1.50;99.90;;;;;;5049134;28;20495;-79
2023/01/28 02:27:21;;;;;;;10.18;8.90;;;1.60;99.90;;;;;;5055050;28;20412;-79
2023/01/28 02:29:53;;;;;;;10.18;8.50;;;1.60;99.90;;;;;;5054672;28;20429;-80
2023/01/28 02:32:40;;;;;;;11.00;9.40;;;1.60;99.90;;;;;;5055370;28;20413;-80
2023/01/28 02:35:23;;;;;;;9.40;8.40;;;1.50;99.90;;;;;;5035934;28;20386;-80
2023/01/28 02:37:57;;;;;;;10.07;9.05;;;1.50;99.90;;;;;;5034994;28;20929;-80
2023/01/28 02:40:28;;;;;;;10.77;9.10;;;1.50;99.90;;;;;;5034633;28;20410;-80
2023/01/28 02:42:57;;;;;;;9.40;8.40;;;1.40;99.90;;;;;;5034700;28;20424;-80
2023/01/28 02:47:56;;;;;;;9.50;8.50;;;1.50;99.90;;;;;;5017171;28;20383;-80
2023/01/28 02:48:13;;;;;;;9.45;8.25;;;1.50;99.90;;;;;;5034774;28;20410;-78
2023/01/28 02:51:04;;;;;;;10.00;8.50;;;1.50;99.90;;;;;;5016456;28;21081;-80
2023/01/28 02:54:16;;;;;;;11.23;8.88;;;1.60;99.90;;;;;;5016515;28;20482;-80
2023/01/28 02:56:41;;;;;;;10.15;7.80;;;1.60;99.90;;;;;;4988893;28;20397;-80
2023/01/28 02:59:30;;;;;;;9.00;7.70;;;1.60;99.90;;;;;;5020803;28;20387;-79
2023/01/28 03:01:57;;;;;;;8.50;7.53;;;1.70;99.90;;;;;;5042270;28;20407;-79
2023/01/28 03:04:30;;;;;;;7.97;7.15;;;1.70;99.90;;;;;;5049083;28;20541;-79
2023/01/28 03:06:59;;;;;;;9.25;7.43;;;1.50;99.90;;;;;;5053173;28;20408;-80
2023/01/28 03:09:25;;;;;;;9.13;7.85;;;1.60;99.90;;;;;;5056792;28;20432;-80
2023/01/28 03:38:47;;;;;;;9.40;7.38;;;1.70;99.90;;;;;;4996675;28;20450;-79
2023/01/28 03:41:19;;;;;;;10.07;7.73;;;1.70;99.90;;;;;;4994861;28;20406;-79
2023/01/28 03:43:44;;;;;;;8.70;7.35;;;1.60;99.90;;;;;;5009807;28;20411;-78
2023/01/28 03:46:10;;;;;;;9.27;7.70;;;1.60;99.90;;;;;;5015060;28;20894;-79
2023/01/28 03:48:35;;;;;;;7.93;7.13;;;1.70;99.90;;;;;;5015359;28;20388;-79
2023/01/28 03:51:01;;;;;;;9.13;8.23;;;1.70;99.90;;;;;;4997401;28;20400;-79
2023/01/28 03:53:27;;;;;;;7.95;7.10;;;1.70;99.90;;;;;;5015559;28;20403;-79
2023/01/28 03:55:53;;;;;;;9.32;7.53;;;1.80;99.90;;;;;;4997010;28;20397;-78
2023/01/28 03:58:20;;;;;;;9.00;8.02;;;1.80;99.90;;;;;;5026519;28;20429;-79
2023/01/28 04:00:46;;;;;;;9.55;7.97;;;1.70;99.90;;;;;;5032881;28;20434;-78
2023/01/28 04:03:17;;;;;;;8.02;7.22;;;1.60;99.90;;;;;;5014778;28;20926;-78
2023/01/28 04:05:43;;;;;;;10.30;9.13;;;1.60;99.90;;;;;;5014570;28;20435;-78
2023/01/28 04:08:09;;;;;;;8.13;7.30;;;1.70;99.90;;;;;;5016169;28;20397;-78
2023/01/28 04:10:34;;;;;;;9.68;7.95;;;1.60;99.90;;;;;;5015853;28;20399;-79
2023/01/28 04:13:00;;;;;;;8.23;7.22;;;1.70;99.90;;;;;;5009742;28;20395;-78
2023/01/28 04:15:25;;;;;;;8.35;7.00;;;1.70;99.90;;;;;;5013970;28;20738;-79
2023/01/28 04:17:51;;;;;;;8.77;7.20;;;1.70;99.90;;;;;;5014148;28;20407;-79
2023/01/28 04:20:17;;;;;;;9.10;8.10;;;1.60;99.90;;;;;;5000306;28;20496;-79
2023/01/28 04:22:42;;;;;;;10.18;7.72;;;1.60;99.90;;;;;;4997660;28;20400;-78
2023/01/28 04:25:08;;;;;;;8.90;8.00;;;1.60;99.90;;;;;;5015772;28;20389;-78
2023/01/28 04:27:34;;;;;;;10.50;8.70;;;1.60;99.90;;;;;;5014480;28;20507;-78
2023/01/28 04:29:59;;;;;;;10.00;8.90;;;1.40;99.90;;;;;;5014778;28;20392;-79
2023/01/28 04:32:25;;;;;;;12.73;8.93;;;1.40;99.90;;;;;;5016079;28;20757;-79
2023/01/28 04:34:50;;;;;;;8.57;7.67;;;1.50;99.90;;;;;;5014684;28;20454;-79
2023/01/28 04:37:16;;;;;;;10.80;8.50;;;1.40;99.90;;;;;;5014981;28;20392;-78
2023/01/28 04:39:41;;;;;;;8.37;7.57;;;1.40;99.90;;;;;;4997427;28;20434;-78
2023/01/28 04:42:07;;;;;;;9.50;8.23;;;1.50;99.90;;;;;;4997271;28;20408;-79
2023/01/28 04:44:33;;;;;;;8.57;7.60;;;1.50;99.90;;;;;;5019258;28;20863;-78
2023/01/28 04:46:58;;;;;;;8.57;7.63;;;1.50;99.90;;;;;;5017851;28;20798;-78
2023/01/28 04:49:24;;;;;;;8.67;7.77;;;1.40;99.90;;;;;;5010345;28;20395;-79
2023/01/28 04:51:49;;;;;;;8.20;7.40;;;1.40;99.90;;;;;;5014954;28;20453;-78
2023/01/28 04:54:15;;;;;;;8.70;7.22;;;1.40;99.90;;;;;;5022052;28;20404;-78
2023/01/28 04:56:40;;;;;;;9.07;7.70;;;1.50;99.90;;;;;;5005458;28;20385;-78
2023/01/28 04:59:07;;;;;;;8.93;7.10;;;1.60;99.90;;;;;;5020917;28;20396;-79
2023/01/28 05:01:32;;;;;;;10.07;7.88;;;1.50;99.90;;;;;;5020826;28;20409;-79
2023/01/28 05:03:58;;;;;;;8.57;7.68;;;1.30;99.90;;;;;;5019744;28;20403;-79
2023/01/28 05:06:24;;;;;;;8.70;7.57;;;1.40;99.90;;;;;;5002746;28;20455;-79
2023/01/28 05:08:49;;;;;;;9.37;7.90;;;1.40;99.90;;;;;;5020546;28;20407;-79
2023/01/28 05:11:15;;;;;;;9.40;7.80;;;1.50;99.90;;;;;;5019420;28;20878;-78
2023/01/28 05:13:40;;;;;;;10.00;8.20;;;1.40;99.90;;;;;;5019985;28;20396;-79
2023/01/28 05:16:06;;;;;;;9.50;7.90;;;1.60;99.90;;;;;;5018522;28;20482;-79
2023/01/28 05:18:31;;;;;;;9.10;8.10;;;1.60;99.90;;;;;;5019399;28;20758;-78
2023/01/28 05:20:57;;;;;;;9.73;8.53;;;1.60;99.90;;;;;;5018751;28;20483;-79
2023/01/28 05:23:23;;;;;;;9.23;7.50;;;1.60;99.90;;;;;;5019574;28;20420;-79
2023/01/28 05:25:49;;;;;;;8.83;7.80;;;1.60;99.90;;;;;;5000803;28;20401;-79
2023/01/28 05:28:15;;;;;;;7.53;6.72;;;1.60;99.90;;;;;;5000277;28;20389;-78
2023/01/28 05:30:40;;;;;;;7.90;7.10;;;1.60;99.90;;;;;;5019782;28;20427;-78
2023/01/28 05:33:06;;;;;;;8.97;7.40;;;1.60;99.90;;;;;;5000991;28;20400;-78
2023/01/28 05:35:32;;;;;;;8.00;7.20;;;1.60;99.90;;;;;;5001161;28;20388;-78
2023/01/28 05:37:58;;;;;;;8.25;7.20;;;1.50;99.90;;;;;;5018336;28;20401;-79
2023/01/28 05:40:23;;;;;;;8.18;7.30;;;1.50;99.90;;;;;;5013712;28;20456;-78
2023/01/28 05:42:49;;;;;;;8.05;7.15;;;1.60;99.90;;;;;;5023916;28;20404;-78
2023/01/28 05:45:14;;;;;;;9.98;7.00;;;1.70;99.90;;;;;;5024659;28;20408;-79
2023/01/28 05:47:40;;;;;;;7.50;6.65;;;1.70;99.90;;;;;;5020001;28;20393;-79
2023/01/28 05:50:07;;;;;;;8.48;6.78;;;1.70;99.90;;;;;;5019916;28;20438;-78
2023/01/28 05:52:32;;;;;;;7.88;7.07;;;1.70;99.90;;;;;;5019463;28;20416;-78
2023/01/28 05:54:58;;;;;;;7.60;6.80;;;1.70;99.90;;;;;;5017754;28;20443;-78
2023/01/28 05:57:23;;;;;;;6.80;6.10;;;1.80;99.90;;;;;;4993746;28;20898;-79
2023/01/28 05:59:49;;;;;;;7.43;6.65;;;1.70;99.90;;;;;;5018443;28;20381;-79
2023/01/28 06:02:14;;;;;;;8.25;6.82;;;1.60;99.90;;;;;;5019043;28;20415;-79
2023/01/28 06:04:40;;;;;;;7.80;6.30;;;1.60;99.90;;;;;;5018849;28;20391;-79
2023/01/28 06:07:05;;;;;;;8.32;6.13;;;1.70;99.90;;;;;;5017766;28;20897;-79
2023/01/28 06:09:31;;;;;;;7.30;6.47;;;1.80;99.90;;;;;;5019223;28;20381;-78
2023/01/28 06:11:56;;;;;;;8.10;6.22;;;1.70;99.90;;;;;;5014965;28;20392;-78
2023/01/28 06:14:22;;;;;;;7.50;6.70;;;1.70;99.90;;;;;;5006206;28;20413;-78
2023/01/28 06:16:47;;;;;;;8.07;6.47;;;1.70;99.90;;;;;;5000610;28;20474;-78
2023/01/28 06:19:13;;;;;;;7.03;6.23;;;1.70;99.90;;;;;;5000579;28;20488;-78
2023/01/28 06:21:39;;;;;;;7.20;5.77;;;1.70;99.90;;;;;;5015125;28;20519;-78
2023/01/28 06:24:05;;;;;;;7.82;6.40;;;1.70;99.90;;;;;;5015376;28;20750;-78
2023/01/28 06:26:30;;;;;;;7.15;6.43;;;1.70;99.90;;;;;;5014987;28;20401;-78
2023/01/28 06:28:56;;;;;;;7.70;6.30;;;1.80;99.90;;;;;;5015016;28;20393;-78
2023/01/28 06:31:21;;;;;;;6.90;6.20;;;1.70;99.90;;;;;;5015648;28;20886;-78
2023/01/28 06:33:47;;;;;;;6.70;5.80;;;1.80;99.90;;;;;;5015400;28;20389;-78
2023/01/28 06:36:12;;;;;;;7.03;6.10;;;1.80;99.90;;;;;;5015383;28;20385;-78
2023/01/28 06:38:38;;;;;;;7.05;6.03;;;1.80;99.90;;;;;;5009490;28;20427;-78
2023/01/28 06:41:04;;;;;;;7.18;6.15;;;1.90;99.90;;;;;;5000773;28;20935;-78
2023/01/28 06:43:29;;;;;;;7.50;6.50;;;1.80;99.90;;;;;;5016761;28;20397;-78
2023/01/28 06:45:56;;;;;;;6.00;5.30;;;1.70;99.90;;;;;;5016537;28;20377;-78
2023/01/28 06:48:23;;;;;;;7.18;5.75;;;1.70;99.90;;;;;;5000204;28;20421;-78
2023/01/28 06:50:50;;;;;;;6.28;5.68;;;1.80;99.90;;;;;;4999358;28;20432;-78
2023/01/28 06:53:16;;;;;;;6.82;5.93;;;1.70;99.90;;;;;;5015319;28;20403;-81
2023/01/28 06:55:42;;;;;;;6.90;5.90;;;1.70;99.90;;;;;;4998715;28;20453;-83
2023/01/28 06:58:08;;;;;;;6.35;5.43;;;1.70;99.90;;;;;;5015250;28;20402;-83
2023/01/28 07:00:33;;;;;;;6.28;5.57;;;1.70;99.90;;;;;;5012125;28;20432;-83
2023/01/28 07:02:59;;;;;;;6.60;5.70;;;1.80;99.90;;;;;;5017866;28;20743;-83
2023/01/28 07:05:25;;;;;;;6.67;5.53;;;1.80;99.90;;;;;;5015849;28;20393;-83
2023/01/28 07:07:50;;;;;;;6.10;5.10;;;1.80;99.90;;;;;;5017282;28;20814;-83
2023/01/28 07:10:16;;;;;;;6.25;5.00;;;1.90;99.90;;;;;;5016919;28;20392;-83
2023/01/28 07:12:42;;;;;;;4.35;3.95;;;1.90;99.90;;;;;;5016154;28;20399;-84
2023/01/28 07:15:09;;;;;;;4.60;4.20;;;2.00;99.90;;;;;;4999928;28;20397;-84
2023/01/28 07:17:38;;;;;;;3.92;3.53;;;2.10;99.90;;;;;;5017018;28;20395;-84
2023/01/28 07:20:05;;;;;;;3.50;3.20;;;2.10;99.90;;;;;;5017566;28;20372;-84
2023/01/28 07:22:30;;;;;;;3.80;3.10;;;2.10;99.90;;;;;;5016406;28;20413;-84
2023/01/28 07:24:57;;;;;;;3.73;3.17;;;2.10;99.90;;;;;;4990520;28;20395;-81
2023/01/28 07:27:23;;;;;;;3.30;3.00;;;2.10;99.90;;;;;;5013799;28;20389;-82
2023/01/28 07:29:48;;;;;;;4.20;3.37;;;2.20;99.90;;;;;;5015935;28;20393;-82
2023/01/28 07:32:15;;;;;;;3.67;3.27;;;2.10;99.90;;;;;;5016808;28;20392;-82
2023/01/28 07:34:41;;;;;;;4.00;3.60;;;2.10;99.90;;;;;;4998585;28;20397;-82
2023/01/28 07:37:08;;;;;;;3.72;3.17;;;2.10;99.90;;;;;;5015829;28;20396;-82
2023/01/28 07:39:33;;;;;;;4.60;3.40;;;2.10;99.90;;;;;;5015905;28;20388;-82
2023/01/28 07:41:59;;;;;;;3.77;3.23;;;2.10;99.90;;;;;;5002418;28;20412;-82
2023/01/28 07:44:25;;;;;;;3.72;3.17;;;2.00;99.90;;;;;;5017954;28;20389;-82
2023/01/28 07:46:51;;;;;;;3.80;3.20;;;2.20;99.90;;;;;;4996481;28;20411;-82
2023/01/28 07:49:16;;;;;;;3.30;3.00;;;2.10;99.90;;;;;;4998726;28;20389;-82
2023/01/28 07:51:42;;;;;;;2.90;2.40;;;2.20;99.90;;;;;;5009918;28;20393;-82
2023/01/28 07:54:08;;;;;;;2.30;2.10;;;2.30;99.90;;;;;;5021049;28;20404;-84
2023/01/28 07:56:33;;;;;;;2.40;2.20;;;2.30;99.90;;;;;;5006131;28;20409;-83
2023/01/28 07:58:59;;;;;;;2.43;2.23;;;2.30;99.90;;;;;;4998049;28;20458;-84
2023/01/28 08:01:25;;;;;;;2.60;2.40;;;2.30;99.90;;;;;;5021067;28;20419;-84
2023/01/28 08:03:50;;;;;;;2.53;2.33;;;2.20;98.50;;;;;;4996656;28;20408;-83
2023/01/28 08:06:16;;;;;;;2.30;2.10;;;2.40;98.30;;;;;;5015142;28;21021;-83
2023/01/28 08:08:42;;;;;;;2.30;2.10;;;2.40;98.40;;;;;;5015916;28;20397;-84
2023/01/28 08:11:10;;;;;;;2.25;2.05;;;2.30;99.10;;;;;;5018369;28;20397;-82
2023/01/28 08:13:36;;;;;;;1.95;1.75;;;2.30;99.00;;;;;;4995070;28;20449;-84
2023/01/28 08:16:04;;;;;;;2.10;1.83;;;2.40;98.10;;;;;;5001693;28;21318;-83
2023/01/28 08:18:30;;;;;;;2.50;2.20;;;2.30;98.00;;;;;;5004774;28;20435;-84
2023/01/28 08:20:56;;;;;;;1.50;1.40;;;2.70;96.80;;;;;;5024483;28;20431;-84
2023/01/28 08:23:22;;;;;;;1.70;1.50;;;2.40;95.80;;;;;;5006146;28;20400;-83
2023/01/28 08:25:47;;;;;;;3.60;2.20;;;2.40;96.20;;;;;;5002644;28;20866;-83
2023/01/28 08:28:15;;;;;;;1.60;1.50;;;2.40;96.50;;;;;;5020677;28;20384;-84
2023/01/28 08:30:41;;;;;;;2.08;1.90;;;2.30;97.00;;;;;;5001696;28;20413;-85
2023/01/28 08:33:08;;;;;;;1.98;1.77;;;2.40;96.80;;;;;;5000590;28;20388;-85
2023/01/28 08:35:35;;;;;;;1.70;1.60;;;2.40;97.10;;;;;;5000244;28;20415;-86
2023/01/28 08:38:03;;;;;;;1.73;1.40;;;2.30;95.80;;;;;;5026303;28;20806;-86
2023/01/28 08:40:29;;;;;;;1.60;1.50;;;2.50;95.20;;;;;;5001835;28;20404;-86
2023/01/28 08:42:55;;;;;;;2.00;1.60;;;2.60;94.10;;;;;;5004598;28;20805;-82
2023/01/28 08:45:24;;;;;;;1.60;1.50;;;2.60;94.30;;;;;;5025191;28;20381;-85
2023/01/28 08:47:58;;;;;;;1.80;1.70;;;2.50;94.10;;;;;;5003183;28;20446;-85
2023/01/28 08:50:26;;;;;;;1.60;1.50;;;2.50;93.70;;;;;;5012393;28;20415;-86
2023/01/28 08:52:56;;;;;;;2.40;2.03;;;2.60;93.10;;;;;;5032928;28;20505;-86
2023/01/28 08:55:23;;;;;;;2.05;1.77;;;2.60;94.10;;;;;;5026476;28;20432;-86
2023/01/28 08:57:49;;;;;;;2.00;1.70;;;2.60;93.30;;;;;;5006416;28;20397;-85
2023/01/28 09:00:15;;;;;;;2.10;1.80;;;2.60;93.30;;;;;;5022458;28;20418;-86
2023/01/28 09:02:41;;;;;;;2.30;1.80;;;2.70;94.20;;;;;;5005015;28;20397;-84
2023/01/28 09:05:07;;;;;;;2.20;2.00;;;2.70;93.90;;;;;;5034914;28;20420;-84
2023/01/28 09:07:34;;;;;;;1.98;1.60;;;2.80;93.50;;;;;;5011883;28;20391;-85
2023/01/28 09:09:59;;;;;;;2.43;2.20;;;2.70;93.40;;;;;;5016827;28;20849;-85
2023/01/28 09:12:26;;;;;;;2.13;1.70;;;2.70;93.70;;;;;;5001914;28;20565;-84
2023/01/28 09:14:51;;;;;;;2.00;1.90;;;2.80;94.30;;;;;;5002921;28;20456;-85
2023/01/28 09:17:17;;;;;;;2.10;1.80;;;2.70;93.20;;;;;;5021494;28;20416;-85
2023/01/28 09:19:43;;;;;;;2.38;2.10;;;2.80;93.80;;;;;;5023084;28;20386;-86
2023/01/28 09:22:08;;;;;;;2.17;1.97;;;2.80;93.40;;;;;;5024615;28;20477;-85
2023/01/28 09:24:34;;;;;;;2.00;1.90;;;2.80;95.70;;;;;;5005776;28;20403;-86
2023/01/28 09:26:59;;;;;;;2.33;1.77;;;2.80;93.30;;;;;;5017699;28;20804;-85
2023/01/28 09:29:25;;;;;;;2.00;1.83;;;2.80;93.20;;;;;;5021970;28;20743;-85
2023/01/28 09:31:50;;;;;;;2.20;2.00;;;2.80;93.50;;;;;;5015722;28;20401;-84
2023/01/28 09:34:16;;;;;;;1.90;1.70;;;2.80;94.00;;;;;;5036764;28;20415;-84
2023/01/28 09:36:41;;;;;;;2.30;1.90;;;2.90;93.00;;;;;;5024579;28;20387;-84
2023/01/28 09:39:07;;;;;;;2.23;2.03;;;2.90;92.70;;;;;;5040174;28;20390;-84
2023/01/28 09:41:36;;;;;;;2.50;1.97;;;2.90;91.50;;;;;;5030671;28;20440;-84
2023/01/28 09:44:19;;;;;;;2.60;1.88;;;3.00;90.40;;;;;;5037475;28;20395;-84
2023/01/28 09:46:45;;;;;;;2.38;2.17;;;2.90;91.80;;;;;;5019932;28;20401;-83
2023/01/28 09:49:34;;;;;;;2.47;2.20;;;2.90;91.50;;;;;;5006191;28;20438;-85
2023/01/28 09:52:00;;;;;;;3.55;2.10;;;2.90;90.80;;;;;;5014003;28;20475;-84
2023/01/28 09:54:48;;;;;;;2.20;2.00;;;3.00;91.90;;;;;;5020966;28;20431;-85
2023/01/28 09:57:20;;;;;;;2.30;2.10;;;3.00;90.90;;;;;;5002708;28;20577;-84
2023/01/28 09:59:46;;;;;;;2.33;2.10;;;2.90;88.80;;;;;;5017343;28;20808;-85
2023/01/28 10:02:14;;;;;;;2.40;2.20;;;3.30;89.80;;;;;;5018165;28;20405;-84
2023/01/28 10:05:07;;;;;;;2.40;2.20;;;3.20;85.50;;;;;;5019498;28;20478;-85
2023/01/28 10:08:00;;;;;;;2.20;2.00;;;3.10;84.30;;;;;;5001714;28;20511;-84
2023/01/28 10:10:48;;;;;;;3.10;1.90;;;3.10;85.70;;;;;;5010686;28;20406;-84
2023/01/28 10:13:38;;;;;;;2.20;2.00;;;3.00;86.30;;;;;;5005698;28;20482;-84
2023/01/28 10:16:36;;;;;;;2.58;1.92;;;3.00;87.90;;;;;;5017725;28;20455;-84
2023/01/28 10:19:30;;;;;;;2.55;2.00;;;3.10;87.90;;;;;;4998446;28;20740;-84
2023/01/28 10:22:06;;;;;;;2.40;2.20;;;3.00;85.60;;;;;;5019266;28;20420;-85
2023/01/28 10:24:48;;;;;;;2.67;2.10;;;3.10;86.40;;;;;;5019163;28;20399;-84
2023/01/28 10:27:30;;;;;;;2.30;2.10;;;3.10;86.50;;;;;;5000193;28;20406;-84
2023/01/28 10:29:58;;;;;;;3.55;2.22;;;3.10;86.70;;;;;;5016617;28;20411;-84
2023/01/28 10:32:32;;;;;;;2.47;2.20;;;3.10;87.40;;;;;;5015397;28;20411;-81
2023/01/28 10:35:00;;;;;;;2.75;2.10;;;3.00;89.70;;;;;;5010210;28;20385;-85
2023/01/28 10:37:27;;;;;;;2.50;2.10;;;3.20;90.80;;;;;;5020535;28;20407;-85
2023/01/28 10:40:02;;;;;;;2.30;2.10;;;3.20;86.00;;;;;;5018320;28;20407;-84
2023/01/28 10:42:37;;;;;;;3.28;2.42;;;3.30;89.70;;;;;;4987680;28;20412;-81
2023/01/28 10:45:25;;;;;;;2.55;2.10;;;3.20;90.00;;;;;;4996617;28;20388;-79
2023/01/28 10:48:22;;;;;;;2.70;2.45;;;3.40;84.70;;;;;;5001311;28;20389;-80
2023/01/28 10:50:55;;;;;;;2.72;2.53;;;3.40;85.00;;;;;;5014344;28;20396;-79
2023/01/28 10:53:36;;;;;;;2.50;2.30;;;3.50;85.10;;;;;;4992133;28;20402;-80
2023/01/28 10:56:06;;;;;;;2.90;2.60;;;3.70;81.00;;;;;;4992761;28;20474;-79
2023/01/28 10:58:35;;;;;;;2.30;2.10;;;3.80;80.70;;;;;;4996429;28;20905;-79
2023/01/28 11:01:04;;;;;;;2.38;2.17;;;4.00;77.90;;;;;;5011195;28;20417;-80
2023/01/28 11:03:34;;;;;;;2.67;2.15;;;3.90;77.00;;;;;;5012865;28;20794;-79
2023/01/28 11:06:00;;;;;;;2.80;2.50;;;3.80;75.10;;;;;;5009862;28;20467;-80
2023/01/28 11:08:28;;;;;;;2.55;2.35;;;3.80;74.50;;;;;;5021204;28;20946;-80
2023/01/28 11:10:55;;;;;;;2.50;2.30;;;3.70;73.80;;;;;;5017280;28;20931;-80
2023/01/28 11:13:26;;;;;;;3.17;2.88;;;4.20;70.80;;;;;;5014390;28;20401;-80
2023/01/28 11:15:58;;;;;;;3.00;2.70;;;4.50;68.60;;;;;;5016731;28;20882;-80
2023/01/28 11:18:37;;;;;;;2.95;2.67;;;4.70;66.90;;;;;;5017439;28;20396;-81
2023/01/28 11:21:15;;;;;;;3.05;2.47;;;4.90;61.50;;;;;;5016859;28;20404;-78
2023/01/28 11:23:52;;;;;;;3.05;2.75;;;5.20;62.90;;;;;;5017327;28;20389;-79
2023/01/28 11:26:22;;;;;;;3.05;2.30;;;5.00;58.60;;;;;;4999177;28;20400;-79
2023/01/28 11:28:49;;;;;;;3.47;3.10;;;5.20;57.10;;;;;;5016562;28;20400;-81
2023/01/28 11:31:16;;;;;;;2.63;2.42;;;5.50;57.10;;;;;;5015857;28;20384;-78
2023/01/28 11:33:44;;;;;;;2.67;2.47;;;6.60;51.00;;;;;;4998834;28;20472;-78
2023/01/28 11:36:17;;;;;;;2.80;2.60;;;7.20;48.50;;;;;;4999239;28;20401;-80
2023/01/28 11:39:00;;;;;;;2.65;2.45;;;8.20;42.20;;;;;;5000031;28;20403;-80
2023/01/28 11:41:31;;;;;;;2.50;2.30;;;8.00;39.60;;;;;;5017294;28;20470;-80
2023/01/28 11:43:58;;;;;;;2.73;2.53;;;7.80;40.50;;;;;;5021387;28;20393;-79
2023/01/28 11:46:30;;;;;;;3.30;3.00;;;6.70;41.10;;;;;;5030344;28;20394;-80
2023/01/28 11:48:55;;;;;;;2.73;2.40;;;6.30;43.60;;;;;;5011522;28;20459;-79
2023/01/28 11:51:29;;;;;;;2.80;2.60;;;5.80;45.10;;;;;;5015640;28;20818;-78
2023/01/28 11:54:19;;;;;;;3.20;2.90;;;5.20;46.50;;;;;;5012425;28;20918;-79
2023/01/28 11:56:50;;;;;;;2.97;2.72;;;5.60;48.00;;;;;;5011815;28;20403;-79
2023/01/28 11:59:32;;;;;;;3.50;2.40;;;5.60;49.20;;;;;;4996673;28;20405;-80
2023/01/28 12:02:33;;;;;;;2.50;2.30;;;5.60;47.40;;;;;;4997005;28;20798;-79
2023/01/28 12:05:18;;;;;;;2.90;2.60;;;5.50;49.00;;;;;;5015061;28;20380;-79
2023/01/28 12:08:08;;;;;;;4.70;2.90;;;5.80;48.10;;;;;;5010174;28;20404;-79
2023/01/28 12:11:11;;;;;;;3.40;2.10;;;6.20;46.10;;;;;;5052285;22;20440;-86
2023/01/28 12:13:52;;;;;;;2.60;2.40;;;6.20;45.40;;;;;;5001157;28;20416;-85
2023/01/28 12:17:03;;;;;;;2.90;2.60;;;5.50;49.50;;;;;;5054763;28;20592;-85
2023/01/28 12:19:33;;;;;;;3.05;2.33;;;5.70;48.60;;;;;;5042033;28;20397;-85
2023/01/28 12:22:08;;;;;;;2.40;2.20;;;5.40;50.20;;;;;;5053011;28;20403;-85
2023/01/28 12:24:57;;;;;;;2.80;2.50;;;5.10;51.20;;;;;;5049870;28;20386;-85
2023/01/28 12:27:47;;;;;;;3.13;2.72;;;5.40;51.90;;;;;;5038974;28;20414;-84
2023/01/28 12:30:42;;;;;;;2.60;2.40;;;4.90;52.80;;;;;;5054655;28;20480;-85
2023/01/28 12:33:51;;;;;;;2.97;2.40;;;4.90;52.80;;;;;;5047100;28;20452;-85
2023/01/28 12:36:36;;;;;;;2.55;2.35;;;5.00;54.40;;;;;;5055202;28;20477;-86
2023/01/28 12:39:21;;;;;;;2.50;2.30;;;5.10;53.80;;;;;;5055078;28;20409;-85
2023/01/28 12:41:52;;;;;;;2.42;2.22;;;4.90;54.10;;;;;;5053355;28;20433;-84
2023/01/28 12:44:46;;;;;;;2.80;2.60;;;5.00;55.00;;;;;;5052799;28;20884;-85
2023/01/28 12:47:20;;;;;;;2.80;2.60;;;4.90;54.40;;;;;;5044859;28;20397;-85
2023/01/28 12:49:54;;;;;;;2.60;2.40;;;5.00;56.30;;;;;;5052456;28;20394;-85
2023/01/28 12:52:41;;;;;;;2.50;2.30;;;4.90;53.80;;;;;;5054515;28;20377;-85
2023/01/28 12:55:21;;;;;;;3.10;2.60;;;4.80;55.60;;;;;;5052054;28;20460;-86
2023/01/28 12:57:48;;;;;;;3.10;2.55;;;4.70;57.00;;;;;;5054867;28;20386;-85
2023/01/28 13:00:44;;;;;;;2.90;2.60;;;4.90;89.80;;;;;;5035792;28;20403;-85
2023/01/28 13:03:35;;;;;;;3.10;2.80;;;4.80;59.00;;;;;;5036516;28;20433;-86
2023/01/28 13:06:07;;;;;;;2.77;2.50;;;4.70;59.60;;;;;;5046900;28;20778;-85
2023/01/28 13:08:32;;;;;;;2.88;2.58;;;4.60;59.70;;;;;;5072714;28;20396;-82
2023/01/28 13:11:02;;;;;;;2.60;2.22;;;4.50;57.80;;;;;;5069205;28;20459;-85
2023/01/28 13:13:34;;;;;;;5.13;2.53;;;4.40;58.30;;;;;;5064927;28;20449;-85
2023/01/28 13:16:01;;;;;;;3.72;3.42;;;4.50;62.10;;;;;;5057464;28;20432;-86
2023/01/28 13:18:33;;;;;;;2.50;2.30;;;4.60;64.20;;;;;;5068867;28;20400;-86
2023/01/28 13:21:01;;;;;;;3.25;2.53;;;4.40;60.40;;;;;;5049297;28;20839;-85
2023/01/28 13:23:29;;;;;;;2.78;2.58;;;4.40;63.10;;;;;;5050665;28;20478;-86
2023/01/28 13:25:55;;;;;;;4.70;3.20;;;4.40;64.50;;;;;;5047475;28;20490;-85
2023/01/28 13:28:32;;;;;;;3.40;3.10;;;4.30;62.80;;;;;;5048771;28;20388;-85
2023/01/28 13:31:13;;;;;;;5.15;3.42;;;4.30;66.00;;;;;;5048170;28;20393;-84
2023/01/28 13:33:40;;;;;;;4.10;3.20;;;4.20;73.80;;;;;;5050317;28;20389;-84
2023/01/28 13:36:18;;;;;;;3.90;3.50;;;4.20;80.00;;;;;;5045836;28;20404;-84
2023/01/28 13:38:44;;;;;;;3.53;3.20;;;4.30;65.40;;;;;;5055428;28;20438;-85